createdAt,value
2018-05-21T00:01:41.274Z,0.88
2018-05-21T00:04:07.469Z,1.10
2018-05-21T00:06:33.643Z,1.15
2018-05-21T00:08:59.880Z,0.73
2018-05-21T00:11:26.102Z,1.00
2018-05-21T00:13:52.296Z,1.40
2018-05-21T00:16:18.527Z,1.00
2018-05-21T00:18:44.763Z,1.25
2018-05-21T00:21:10.963Z,1.00
2018-05-21T00:23:37.134Z,1.25
2018-05-21T00:26:03.367Z,1.05
2018-05-21T00:28:30.679Z,0.90
2018-05-21T00:30:56.859Z,0.85
2018-05-21T00:33:23.042Z,0.85
2018-05-21T00:35:49.267Z,1.20
2018-05-21T00:38:15.462Z,1.05
2018-05-21T00:40:41.667Z,0.93
2018-05-21T00:43:07.836Z,1.10
2018-05-21T00:45:34.012Z,0.85
2018-05-21T00:48:01.314Z,1.23
2018-05-21T00:50:27.507Z,1.35
2018-05-21T00:52:53.674Z,1.52
2018-05-21T00:55:27.748Z,0.75
2018-05-21T00:57:53.969Z,0.85
2018-05-21T01:00:20.659Z,1.23
2018-05-21T01:02:46.875Z,1.52
2018-05-21T01:05:13.064Z,1.23
2018-05-21T01:07:40.347Z,1.12
2018-05-21T01:10:06.652Z,1.17
2018-05-21T01:12:33.958Z,0.90
2018-05-21T01:15:00.177Z,1.05
2018-05-21T01:17:26.807Z,1.15
2018-05-21T01:19:53.167Z,1.10
2018-05-21T01:22:19.346Z,1.10
2018-05-21T01:24:45.697Z,0.90
2018-05-21T01:27:11.867Z,1.15
2018-05-21T01:29:38.078Z,0.93
2018-05-21T01:32:04.355Z,0.70
2018-05-21T01:34:30.533Z,1.00
2018-05-21T01:36:56.715Z,1.40
2018-05-21T01:39:22.911Z,0.73
2018-05-21T01:41:50.806Z,1.23
2018-05-21T01:44:17.028Z,1.02
2018-05-21T01:46:44.355Z,1.08
2018-05-21T01:49:21.442Z,1.02
2018-05-21T01:51:47.631Z,0.80
2018-05-21T01:54:14.937Z,1.17
2018-05-21T01:56:41.143Z,1.02
2018-05-21T01:59:08.446Z,1.15
2018-05-21T02:01:34.635Z,1.37
2018-05-21T02:04:00.826Z,1.25
2018-05-21T02:06:27.018Z,1.10
2018-05-21T02:08:53.204Z,1.12
2018-05-21T02:11:19.384Z,1.65
2018-05-21T02:13:45.582Z,1.10
2018-05-21T02:16:11.774Z,1.15
2018-05-21T02:18:37.947Z,0.95
2018-05-21T02:21:15.123Z,1.37
2018-05-21T02:23:41.320Z,1.00
2018-05-21T02:26:07.515Z,0.82
2018-05-21T02:28:35.196Z,1.00
2018-05-21T02:31:02.539Z,1.23
2018-05-21T02:33:28.752Z,0.93
2018-05-21T02:35:54.933Z,1.10
2018-05-21T02:38:22.238Z,1.33
2018-05-21T02:40:48.443Z,1.40
2018-05-21T02:43:15.747Z,1.35
2018-05-21T02:45:41.965Z,1.30
2018-05-21T02:48:09.376Z,1.30
2018-05-21T02:50:35.555Z,1.52
2018-05-21T02:53:01.731Z,1.50
2018-05-21T02:55:27.932Z,1.23
2018-05-21T02:57:54.132Z,1.17
2018-05-21T03:00:20.298Z,1.20
2018-05-21T03:02:46.486Z,1.48
2018-05-21T03:05:12.686Z,1.17
2018-05-21T03:07:38.890Z,1.10
2018-05-21T03:10:05.114Z,1.40
2018-05-21T03:12:31.286Z,1.17
2018-05-21T03:14:57.466Z,1.05
2018-05-21T03:17:24.794Z,1.35
2018-05-21T03:19:50.970Z,1.20
2018-05-21T03:22:17.127Z,1.27
2018-05-21T03:24:45.045Z,1.30
2018-05-21T03:27:11.233Z,1.08
2018-05-21T03:29:38.537Z,1.45
2018-05-21T03:32:04.754Z,1.60
2018-05-21T03:34:32.034Z,1.35
2018-05-21T03:36:58.265Z,1.45
2018-05-21T03:39:24.467Z,1.50
2018-05-21T03:41:50.645Z,1.52
2018-05-21T03:44:18.529Z,1.60
2018-05-21T03:46:44.956Z,1.67
2018-05-21T03:49:11.146Z,1.23
2018-05-21T03:51:37.355Z,1.40
2018-05-21T03:54:03.574Z,1.55
2018-05-21T03:56:29.771Z,1.37
2018-05-21T03:59:08.219Z,1.40
2018-05-21T04:01:46.625Z,1.77
2018-05-21T04:04:12.822Z,1.80
2018-05-21T04:06:40.111Z,2.00
2018-05-21T04:09:06.294Z,1.75
2018-05-21T04:11:32.543Z,1.35
2018-05-21T04:13:58.754Z,1.55
2018-05-21T04:16:24.925Z,2.08
2018-05-21T04:18:51.200Z,1.65
2018-05-21T04:21:17.315Z,1.95
2018-05-21T04:23:43.514Z,2.37
2018-05-21T04:26:09.702Z,1.87
2018-05-21T04:28:35.891Z,1.70
2018-05-21T04:31:02.054Z,1.58
2018-05-21T04:33:28.263Z,1.60
2018-05-21T04:35:54.435Z,1.50
2018-05-21T04:38:20.665Z,1.95
2018-05-21T04:40:46.933Z,1.95
2018-05-21T04:43:13.122Z,1.45
2018-05-21T04:45:39.410Z,1.73
2018-05-21T04:48:05.634Z,1.65
2018-05-21T04:50:31.831Z,2.28
2018-05-21T04:52:59.130Z,1.83
2018-05-21T04:55:25.302Z,2.28
2018-05-21T04:57:51.466Z,2.20
2018-05-21T05:00:18.785Z,2.22
2018-05-21T05:02:44.957Z,2.12
2018-05-21T05:05:11.131Z,2.15
2018-05-21T05:07:37.326Z,1.83
2018-05-21T05:10:03.511Z,1.58
2018-05-21T05:12:31.398Z,1.98
2018-05-21T05:14:57.605Z,2.08
2018-05-21T05:17:23.784Z,2.05
2018-05-21T05:19:49.951Z,2.55
2018-05-21T05:22:16.141Z,1.95
2018-05-21T05:24:43.434Z,2.30
2018-05-21T05:27:09.614Z,2.45
2018-05-21T05:29:35.799Z,2.17
2018-05-21T05:32:03.782Z,2.05
2018-05-21T05:34:31.713Z,2.58
2018-05-21T05:36:57.941Z,2.40
2018-05-21T05:39:24.130Z,2.25
2018-05-21T05:41:51.448Z,2.20
2018-05-21T05:44:17.627Z,2.05
2018-05-21T05:46:43.821Z,2.58
2018-05-21T05:49:11.005Z,2.22
2018-05-21T05:51:37.191Z,2.78
2018-05-21T05:54:04.524Z,2.05
2018-05-21T05:56:32.226Z,2.72
2018-05-21T05:58:59.520Z,2.53
2018-05-21T06:01:25.746Z,2.58
2018-05-21T06:03:51.963Z,2.67
2018-05-21T06:06:18.151Z,2.62
2018-05-21T06:08:44.451Z,2.67
2018-05-21T06:11:10.674Z,2.85
2018-05-21T06:13:38.448Z,3.00
2018-05-21T06:16:06.005Z,2.78
2018-05-21T06:18:32.376Z,2.45
2018-05-21T06:21:00.331Z,2.97
2018-05-21T06:23:26.834Z,2.87
2018-05-21T06:25:54.620Z,3.20
2018-05-21T06:28:21.238Z,2.85
2018-05-21T06:30:47.468Z,2.80
2018-05-21T06:33:13.718Z,3.08
2018-05-21T06:35:40.015Z,3.08
2018-05-21T06:38:06.306Z,2.87
2018-05-21T06:40:33.613Z,3.33
2018-05-21T06:42:59.943Z,3.53
2018-05-21T06:45:27.299Z,3.03
2018-05-21T06:47:54.082Z,2.80
2018-05-21T06:50:20.318Z,3.78
2018-05-21T06:52:49.034Z,3.22
2018-05-21T06:55:15.296Z,2.85
2018-05-21T06:57:41.508Z,3.35
2018-05-21T07:00:09.078Z,3.62
2018-05-21T07:02:35.335Z,3.83
2018-05-21T07:05:02.971Z,3.60
2018-05-21T07:07:30.864Z,4.15
2018-05-21T07:09:58.336Z,3.42
2018-05-21T07:12:26.199Z,3.40
2018-05-21T07:14:53.632Z,3.83
2018-05-21T07:17:19.886Z,3.12
2018-05-21T07:19:46.846Z,3.28
2018-05-21T07:22:13.075Z,3.28
2018-05-21T07:24:39.287Z,3.10
2018-05-21T07:27:06.989Z,3.30
2018-05-21T07:29:33.399Z,4.40
2018-05-21T07:32:00.690Z,3.53
2018-05-21T07:34:26.894Z,3.30
2018-05-21T07:36:53.588Z,3.35
2018-05-21T07:39:20.108Z,3.20
2018-05-21T07:41:48.074Z,3.78
2018-05-21T07:44:14.436Z,4.22
2018-05-21T07:46:41.783Z,2.47
2018-05-21T07:49:08.314Z,3.25
2018-05-21T07:51:34.932Z,3.53
2018-05-21T07:54:06.472Z,3.45
2018-05-21T07:56:32.797Z,3.08
2018-05-21T07:58:59.139Z,3.45
2018-05-21T08:01:26.415Z,3.22
2018-05-21T08:03:52.717Z,3.53
2018-05-21T08:06:18.951Z,3.53
2018-05-21T08:08:45.175Z,3.42
2018-05-21T08:11:12.493Z,3.80
2018-05-21T08:13:38.742Z,3.60
2018-05-21T08:16:04.976Z,3.50
2018-05-21T08:18:31.176Z,3.15
2018-05-21T08:20:57.362Z,3.30
2018-05-21T08:23:23.577Z,3.42
2018-05-21T08:25:49.830Z,3.70
2018-05-21T08:28:16.043Z,3.80
2018-05-21T08:30:42.271Z,3.78
2018-05-21T08:33:08.451Z,3.12
2018-05-21T08:35:34.669Z,3.08
2018-05-21T08:38:00.939Z,3.15
2018-05-21T08:40:27.118Z,3.80
2018-05-21T08:42:53.498Z,3.70
2018-05-21T08:45:19.702Z,3.40
2018-05-21T08:47:45.931Z,3.33
2018-05-21T08:50:12.234Z,3.28
2018-05-21T08:52:38.422Z,3.60
2018-05-21T08:55:04.635Z,3.83
2018-05-21T08:57:30.870Z,3.30
2018-05-21T08:59:57.048Z,2.80
2018-05-21T09:02:23.402Z,3.55
2018-05-21T09:04:50.706Z,3.33
2018-05-21T09:07:16.874Z,3.33
2018-05-21T09:09:43.056Z,3.35
2018-05-21T09:12:11.272Z,4.22
2018-05-21T09:14:37.518Z,3.20
2018-05-21T09:17:03.701Z,3.70
2018-05-21T09:19:29.955Z,3.92
2018-05-21T09:21:56.228Z,3.00
2018-05-21T09:24:22.406Z,3.35
2018-05-21T09:26:49.010Z,3.25
2018-05-21T09:29:15.505Z,3.85
2018-05-21T09:31:41.703Z,3.22
2018-05-21T09:34:07.887Z,3.40
2018-05-21T09:36:36.452Z,3.20
2018-05-21T09:39:07.343Z,2.80
2018-05-21T09:41:34.851Z,3.50
2018-05-21T09:44:02.255Z,3.53
2018-05-21T09:46:33.755Z,3.30
2018-05-21T09:49:00.044Z,2.90
2018-05-21T09:51:26.687Z,3.45
2018-05-21T09:53:54.172Z,3.25
2018-05-21T09:56:20.410Z,2.70
2018-05-21T09:58:46.622Z,2.47
2018-05-21T10:01:12.913Z,2.95
2018-05-21T10:03:39.090Z,3.00
2018-05-21T10:06:05.406Z,3.17
2018-05-21T10:08:31.628Z,3.08
2018-05-21T10:10:57.967Z,2.95
2018-05-21T10:13:24.270Z,3.05
2018-05-21T10:15:50.550Z,2.83
2018-05-21T10:18:16.994Z,2.80
2018-05-21T10:20:43.277Z,3.03
2018-05-21T10:23:10.895Z,2.60
2018-05-21T10:26:00.477Z,2.80
2018-05-21T10:28:27.173Z,3.10
2018-05-21T10:30:56.709Z,3.25
2018-05-21T10:33:22.956Z,3.12
2018-05-21T10:35:49.187Z,2.62
2018-05-21T10:38:15.790Z,2.47
2018-05-21T10:40:53.401Z,2.60
2018-05-21T10:46:23.684Z,2.70
2018-05-21T10:48:54.213Z,3.12
2018-05-21T10:51:33.795Z,3.20
2018-05-21T10:54:00.137Z,2.45
2018-05-21T10:56:26.554Z,2.28
2018-05-21T10:58:54.100Z,3.10
2018-05-21T11:01:20.485Z,2.60
2018-05-21T11:06:45.136Z,3.17
2018-05-21T11:09:11.535Z,2.78
2018-05-21T11:11:37.900Z,2.45
2018-05-21T11:14:04.315Z,3.10
2018-05-21T11:16:30.497Z,2.92
2018-05-21T11:18:56.691Z,2.47
2018-05-21T11:21:22.886Z,2.87
2018-05-21T11:23:49.232Z,3.03
2018-05-21T11:26:28.406Z,2.42
2018-05-21T11:28:54.714Z,2.70
2018-05-21T11:31:45.896Z,2.78
2018-05-21T11:34:24.145Z,2.70
2018-05-21T11:36:50.358Z,2.45
2018-05-21T11:39:32.037Z,2.25
2018-05-21T11:41:59.451Z,3.30
2018-05-21T11:44:26.510Z,2.97
2018-05-21T11:46:52.695Z,2.35
2018-05-21T11:49:20.007Z,2.97
2018-05-21T11:51:46.238Z,2.67
2018-05-21T11:54:12.693Z,2.20
2018-05-21T11:57:00.069Z,2.33
2018-05-21T11:59:26.429Z,2.10
2018-05-21T12:01:53.764Z,2.28
2018-05-21T12:04:31.311Z,2.10
2018-05-21T12:06:58.235Z,2.45
2018-05-21T12:09:34.989Z,2.33
2018-05-21T12:12:01.357Z,2.17
2018-05-21T12:14:27.559Z,2.15
2018-05-21T12:16:54.490Z,2.25
2018-05-21T12:19:20.723Z,2.28
2018-05-21T12:21:47.230Z,2.05
2018-05-21T12:24:15.075Z,2.47
2018-05-21T12:26:44.375Z,2.22
2018-05-21T12:29:26.073Z,2.37
2018-05-21T12:31:53.553Z,2.75
2018-05-21T12:34:20.850Z,2.58
2018-05-21T12:36:47.082Z,2.50
2018-05-21T12:39:16.459Z,2.65
2018-05-21T12:41:44.629Z,2.75
2018-05-21T12:44:25.826Z,2.22
2018-05-21T12:46:52.374Z,2.83
2018-05-21T12:49:19.365Z,2.20
2018-05-21T12:51:45.562Z,2.33
2018-05-21T12:54:13.987Z,2.40
2018-05-21T12:56:57.369Z,2.50
2018-05-21T12:59:35.823Z,2.00
2018-05-21T13:02:02.398Z,2.17
2018-05-21T13:04:29.435Z,2.40
2018-05-21T13:06:56.189Z,2.15
2018-05-21T13:09:26.100Z,2.17
2018-05-21T13:11:54.647Z,1.80
2018-05-21T13:14:32.094Z,2.12
2018-05-21T13:16:59.753Z,2.08
2018-05-21T13:19:26.318Z,2.30
2018-05-21T13:21:52.671Z,2.05
2018-05-21T13:24:19.896Z,1.90
2018-05-21T13:26:46.625Z,2.20
2018-05-21T13:29:14.720Z,9.52
2018-05-21T13:31:44.195Z,4.60
2018-05-21T13:34:23.846Z,2.17
2018-05-21T13:37:03.207Z,2.62
2018-05-21T13:39:32.399Z,2.58
2018-05-21T13:42:00.286Z,2.00
2018-05-21T13:44:26.799Z,2.65
2018-05-21T13:46:53.216Z,1.95
2018-05-21T13:49:21.083Z,3.08
2018-05-21T13:51:47.784Z,13.02
2018-05-21T13:54:18.116Z,13.27
2018-05-21T13:56:46.290Z,7.43
2018-05-21T13:59:30.628Z,7.60
2018-05-21T14:01:58.810Z,3.53
2018-05-21T14:04:26.190Z,4.03
2018-05-21T14:06:52.939Z,4.47
2018-05-21T14:09:21.669Z,2.45
2018-05-21T14:11:49.781Z,2.87
2018-05-21T14:14:16.424Z,2.67
2018-05-21T14:16:43.096Z,2.58
2018-05-21T14:19:10.487Z,2.72
2018-05-21T14:21:37.042Z,2.90
2018-05-21T14:24:05.161Z,2.90
2018-05-21T14:26:32.270Z,2.62
2018-05-21T14:28:59.363Z,2.72
2018-05-21T14:31:25.656Z,2.75
2018-05-21T14:33:51.977Z,2.97
2018-05-21T14:36:19.070Z,2.78
2018-05-21T14:38:45.468Z,2.90
2018-05-21T14:41:11.762Z,2.60
2018-05-21T14:43:38.014Z,2.67
2018-05-21T14:46:06.168Z,2.95
2018-05-21T14:48:33.157Z,2.42
2018-05-21T14:50:59.417Z,2.15
2018-05-21T14:53:25.662Z,2.72
2018-05-21T14:55:51.850Z,2.87
2018-05-21T14:58:18.096Z,2.42
2018-05-21T15:00:44.298Z,2.30
2018-05-21T15:03:10.598Z,2.55
2018-05-21T15:05:36.870Z,2.15
2018-05-21T15:08:03.115Z,2.62
2018-05-21T15:10:30.672Z,2.50
2018-05-21T15:12:58.211Z,2.60
2018-05-21T15:15:24.650Z,2.33
2018-05-21T15:17:50.876Z,2.83
2018-05-21T15:20:18.263Z,2.47
2018-05-21T15:22:44.503Z,2.42
2018-05-21T15:25:10.776Z,2.70
2018-05-21T15:27:36.997Z,2.60
2018-05-21T15:30:03.401Z,2.87
2018-05-21T15:32:29.747Z,2.35
2018-05-21T15:34:57.138Z,2.40
2018-05-21T15:37:25.552Z,2.53
2018-05-21T15:39:51.957Z,2.12
2018-05-21T15:42:18.338Z,2.65
2018-05-21T15:44:44.800Z,2.83
2018-05-21T15:47:11.059Z,2.62
2018-05-21T15:49:38.491Z,2.28
2018-05-21T15:52:04.978Z,2.40
2018-05-21T15:54:32.551Z,2.60
2018-05-21T15:56:59.110Z,2.95
2018-05-21T15:59:26.449Z,2.22
2018-05-21T16:01:52.868Z,2.45
2018-05-21T16:04:19.400Z,4.20
2018-05-21T16:06:45.746Z,2.55
2018-05-21T16:09:13.608Z,2.80
2018-05-21T16:11:39.831Z,3.05
2018-05-21T16:14:06.150Z,3.70
2018-05-21T16:16:32.387Z,3.53
2018-05-21T16:18:58.711Z,2.35
2018-05-21T16:21:26.178Z,2.55
2018-05-21T16:23:52.506Z,2.12
2018-05-21T16:26:19.866Z,2.47
2018-05-21T16:28:47.998Z,2.20
2018-05-21T16:31:14.275Z,2.37
2018-05-21T16:33:40.451Z,2.30
2018-05-21T16:36:06.734Z,2.78
2018-05-21T16:38:33.003Z,2.33
2018-05-21T16:40:59.235Z,3.17
2018-05-21T16:43:25.427Z,2.70
2018-05-21T16:45:51.735Z,13.30
2018-05-21T16:48:17.960Z,9.32
2018-05-21T16:50:44.157Z,9.27
2018-05-21T16:53:10.377Z,3.60
2018-05-21T16:55:36.596Z,3.03
2018-05-21T16:58:03.114Z,3.37
2018-05-21T17:00:29.336Z,2.92
2018-05-21T17:02:55.527Z,2.78
2018-05-21T17:05:21.731Z,2.87
2018-05-21T17:07:47.956Z,2.28
2018-05-21T17:10:14.181Z,2.70
2018-05-21T17:12:40.475Z,3.50
2018-05-21T17:15:07.803Z,3.92
2018-05-21T17:17:34.361Z,4.62
2018-05-21T17:20:00.919Z,3.22
2018-05-21T17:22:27.155Z,2.78
2018-05-21T17:24:53.414Z,2.80
2018-05-21T17:27:20.742Z,4.07
2018-05-21T17:29:46.950Z,2.70
2018-05-21T17:32:13.185Z,4.85
2018-05-21T17:34:40.143Z,5.35
2018-05-21T17:37:06.495Z,3.47
2018-05-21T17:39:32.702Z,2.80
2018-05-21T17:41:58.945Z,2.60
2018-05-21T17:44:25.238Z,2.58
2018-05-21T17:46:51.930Z,2.17
2018-05-21T17:49:18.183Z,2.40
2018-05-21T17:51:44.486Z,2.87
2018-05-21T17:54:12.458Z,2.47
2018-05-21T17:56:38.896Z,2.53
2018-05-21T17:59:05.425Z,2.78
2018-05-21T18:01:33.192Z,3.42
2018-05-21T18:03:59.498Z,3.22
2018-05-21T18:06:26.355Z,2.95
2018-05-21T18:08:53.206Z,2.70
2018-05-21T18:11:19.891Z,2.50
2018-05-21T18:13:46.636Z,2.33
2018-05-21T18:16:13.223Z,2.47
2018-05-21T18:18:40.105Z,2.58
2018-05-21T18:21:08.497Z,2.35
2018-05-21T18:23:36.267Z,2.58
2018-05-21T18:26:03.583Z,4.60
2018-05-21T18:28:31.624Z,4.28
2018-05-21T18:30:58.531Z,3.25
2018-05-21T18:33:26.770Z,2.72
2018-05-21T18:35:55.203Z,2.80
2018-05-21T18:38:21.851Z,2.87
2018-05-21T18:40:58.688Z,2.70
2018-05-21T18:43:26.502Z,2.28
2018-05-21T18:45:53.385Z,3.00
2018-05-21T18:48:24.986Z,3.10
2018-05-21T18:50:51.998Z,3.33
2018-05-21T18:53:19.876Z,2.78
2018-05-21T18:55:48.166Z,3.05
2018-05-21T18:58:23.083Z,2.60
2018-05-21T19:01:01.556Z,2.62
2018-05-21T19:03:28.518Z,3.10
2018-05-21T19:05:55.172Z,2.95
2018-05-21T19:08:22.606Z,3.08
2018-05-21T19:10:50.046Z,3.15
2018-05-21T19:13:16.259Z,3.25
2018-05-21T19:15:43.276Z,4.22
2018-05-21T19:18:09.547Z,3.00
2018-05-21T19:20:35.957Z,3.50
2018-05-21T19:23:02.206Z,3.12
2018-05-21T19:25:28.820Z,3.33
2018-05-21T19:27:55.238Z,6.60
2018-05-21T19:30:21.487Z,6.30
2018-05-21T19:32:48.059Z,6.37
2018-05-21T19:35:14.338Z,3.60
2018-05-21T19:37:41.308Z,3.47
2018-05-21T19:40:07.854Z,3.75
2018-05-21T19:42:35.238Z,4.10
2018-05-21T19:45:01.432Z,3.55
2018-05-21T19:47:28.799Z,4.20
2018-05-21T19:49:55.003Z,4.53
2018-05-21T19:52:21.304Z,3.80
2018-05-21T19:54:47.616Z,12.05
2018-05-21T19:57:15.601Z,9.02
2018-05-21T19:59:43.131Z,8.55
2018-05-21T20:02:09.444Z,7.18
2018-05-21T20:04:35.713Z,4.93
2018-05-21T20:07:03.407Z,4.32
2018-05-21T20:09:29.668Z,4.57
2018-05-21T20:11:55.867Z,4.22
2018-05-21T20:14:22.146Z,3.85
2018-05-21T20:16:49.584Z,3.92
2018-05-21T20:19:15.890Z,4.28
2018-05-21T20:21:43.323Z,3.50
2018-05-21T20:24:09.518Z,3.67
2018-05-21T20:26:35.722Z,3.95
2018-05-21T20:29:01.929Z,3.05
2018-05-21T20:31:28.211Z,4.45
2018-05-21T20:33:54.307Z,4.37
2018-05-21T20:36:20.584Z,4.57
2018-05-21T20:38:47.906Z,4.20
2018-05-21T20:41:14.113Z,4.82
2018-05-21T20:43:40.286Z,4.70
2018-05-21T20:46:06.482Z,3.83
2018-05-21T20:48:32.802Z,4.80
2018-05-21T20:50:59.143Z,4.32
2018-05-21T20:53:25.483Z,7.65
2018-05-21T20:55:52.935Z,10.23
2018-05-21T20:58:19.374Z,7.20
2018-05-21T21:00:45.690Z,6.32
2018-05-21T21:03:11.889Z,5.85
2018-05-21T21:05:38.066Z,9.80
2018-05-21T21:08:05.614Z,6.70
2018-05-21T21:10:32.043Z,5.37
2018-05-21T21:12:59.350Z,5.60
2018-05-21T21:15:26.782Z,21.33
2018-05-21T21:17:52.974Z,7.28
2018-05-21T21:20:19.226Z,7.18
2018-05-21T21:22:45.734Z,5.62
2018-05-21T21:25:12.949Z,5.90
2018-05-21T21:27:39.387Z,5.70
2018-05-21T21:30:05.673Z,5.80
2018-05-21T21:32:31.943Z,5.40
2018-05-21T21:34:58.133Z,14.02
2018-05-21T21:37:24.485Z,18.33
2018-05-21T21:39:50.695Z,13.93
2018-05-21T21:42:17.972Z,8.45
2018-05-21T21:44:44.674Z,9.05
2018-05-21T21:47:10.895Z,9.73
2018-05-21T21:49:37.266Z,10.38
2018-05-21T21:52:03.520Z,9.18
2018-05-21T21:54:29.863Z,34.30
2018-05-21T21:56:56.206Z,13.07
2018-05-21T21:59:22.390Z,8.88
2018-05-21T22:01:49.695Z,6.87
2018-05-21T22:04:15.891Z,5.85
2018-05-21T22:06:43.196Z,5.43
2018-05-21T22:09:09.703Z,4.43
2018-05-21T22:11:35.894Z,4.68
2018-05-21T22:14:02.362Z,4.22
2018-05-21T22:16:28.637Z,4.82
2018-05-21T22:18:54.811Z,4.35
2018-05-21T22:21:21.368Z,4.47
2018-05-21T22:23:47.583Z,3.78
2018-05-21T22:26:14.032Z,4.28
2018-05-21T22:28:40.298Z,3.97
2018-05-21T22:31:07.491Z,3.55
2018-05-21T22:33:34.918Z,3.35
2018-05-21T22:36:01.126Z,3.40
2018-05-21T22:38:28.402Z,4.12
2018-05-21T22:40:55.730Z,3.37
2018-05-21T22:43:21.923Z,2.58
2018-05-21T22:45:48.111Z,3.28
2018-05-21T22:48:14.331Z,3.20
2018-05-21T22:50:40.589Z,2.65
2018-05-21T22:53:06.782Z,3.55
2018-05-21T22:55:32.998Z,3.10
2018-05-21T22:57:59.170Z,3.28
2018-05-21T23:00:25.406Z,2.97
2018-05-21T23:02:51.585Z,3.67
2018-05-21T23:05:17.743Z,2.50
2018-05-21T23:07:43.952Z,3.37
2018-05-21T23:10:10.143Z,2.55
2018-05-21T23:12:36.301Z,2.75
2018-05-21T23:15:02.606Z,2.67
2018-05-21T23:17:28.871Z,3.12
2018-05-21T23:19:56.163Z,2.67
2018-05-21T23:22:31.465Z,2.95
2018-05-21T23:24:59.115Z,2.60
2018-05-21T23:27:35.856Z,2.90
2018-05-21T23:30:06.253Z,2.65
2018-05-21T23:32:32.658Z,2.25
2018-05-21T23:34:59.008Z,2.65
2018-05-21T23:37:25.188Z,2.85
2018-05-21T23:39:51.379Z,2.95
2018-05-21T23:42:18.670Z,3.12
2018-05-21T23:44:44.857Z,3.30
2018-05-21T23:47:11.063Z,2.60
2018-05-21T23:49:37.271Z,3.67
2018-05-21T23:52:03.513Z,2.87
2018-05-21T23:54:31.446Z,2.37
2018-05-21T23:56:57.630Z,3.10
2018-05-21T23:59:25.517Z,2.90
